sensor_id;sensor_type;location;lat;lon;timestamp;pressure;altitude;pressure_sealevel;temperature;humidity
11856;BME280;5987;53.140;8.904;2022-12-07T00:01:20;101377.09;;;2.23;100.00
11856;BME280;5987;53.140;8.904;2022-12-07T00:04:24;101368.41;;;2.12;100.00
11856;BME280;5987;53.140;8.904;2022-12-07T00:07:28;101363.19;;;2.06;100.00
11856;BME280;5987;53.140;8.904;2022-12-07T00:10:33;101357.06;;;1.93;100.00
11856;BME280;5987;53.140;8.904;2022-12-07T00:13:38;101364.81;;;1.88;100.00
11856;BME280;5987;53.140;8.904;2022-12-07T00:16:44;101371.66;;;1.83;100.00
11856;BME280;5987;53.140;8.904;2022-12-07T00:19:48;101358.63;;;1.77;100.00
11856;BME280;5987;53.140;8.904;2022-12-07T00:22:51;101362.91;;;1.69;100.00
11856;BME280;5987;53.140;8.904;2022-12-07T00:25:55;101362.03;;;1.70;100.00
11856;BME280;5987;53.140;8.904;2022-12-07T00:29:02;101369.78;;;1.67;100.00
11856;BME280;5987;53.140;8.904;2022-12-07T00:32:07;101378.41;;;1.66;100.00
11856;BME280;5987;53.140;8.904;2022-12-07T00:35:11;101369.78;;;1.67;100.00
11856;BME280;5987;53.140;8.904;2022-12-07T00:38:14;101381.91;;;1.71;100.00
11856;BME280;5987;53.140;8.904;2022-12-07T00:41:21;101373.31;;;1.75;100.00
11856;BME280;5987;53.140;8.904;2022-12-07T00:44:24;101361.28;;;1.82;100.00
11856;BME280;5987;53.140;8.904;2022-12-07T00:47:29;101356.94;;;1.79;100.00
11856;BME280;5987;53.140;8.904;2022-12-07T00:50:33;101352.63;;;1.81;100.00
11856;BME280;5987;53.140;8.904;2022-12-07T00:53:37;101354.38;;;1.84;100.00
11856;BME280;5987;53.140;8.904;2022-12-07T00:56:43;101361.28;;;1.80;100.00
11856;BME280;5987;53.140;8.904;2022-12-07T00:59:47;101363.00;;;1.81;100.00
11856;BME280;5987;53.140;8.904;2022-12-07T01:02:52;101363.03;;;1.86;100.00
11856;BME280;5987;53.140;8.904;2022-12-07T01:05:57;101354.44;;;1.88;100.00
11856;BME280;5987;53.140;8.904;2022-12-07T01:09:02;101362.16;;;1.87;100.00
11856;BME280;5987;53.140;8.904;2022-12-07T01:12:06;101351.84;;;1.90;100.00
11856;BME280;5987;53.140;8.904;2022-12-07T01:15:24;101348.34;;;1.83;100.00
11856;BME280;5987;53.140;8.904;2022-12-07T01:18:33;101355.28;;;1.84;100.00
11856;BME280;5987;53.140;8.904;2022-12-07T01:21:38;101355.25;;;1.83;100.00
11856;BME280;5987;53.140;8.904;2022-12-07T01:24:42;101352.69;;;1.87;100.00
11856;BME280;5987;53.140;8.904;2022-12-07T01:27:46;101341.50;;;1.90;100.00
11856;BME280;5987;53.140;8.904;2022-12-07T01:30:57;101338.88;;;1.87;100.00
11856;BME280;5987;53.140;8.904;2022-12-07T01:34:02;101343.16;;;1.82;100.00
11856;BME280;5987;53.140;8.904;2022-12-07T01:37:06;101345.69;;;1.77;100.00
11856;BME280;5987;53.140;8.904;2022-12-07T01:40:11;101349.19;;;1.79;100.00
11856;BME280;5987;53.140;8.904;2022-12-07T01:43:24;101343.97;;;1.73;100.00
11856;BME280;5987;53.140;8.904;2022-12-07T01:46:29;101324.97;;;1.74;100.00
11856;BME280;5987;53.140;8.904;2022-12-07T01:49:37;101327.63;;;1.82;100.00
11856;BME280;5987;53.140;8.904;2022-12-07T01:52:43;101330.16;;;1.77;100.00
11856;BME280;5987;53.140;8.904;2022-12-07T01:55:52;101327.63;;;1.79;100.00
11856;BME280;5987;53.140;8.904;2022-12-07T01:58:59;101322.38;;;1.74;100.00
11856;BME280;5987;53.140;8.904;2022-12-07T02:02:10;101329.22;;;1.66;100.00
11856;BME280;5987;53.140;8.904;2022-12-07T02:05:19;101329.22;;;1.64;100.00
11856;BME280;5987;53.140;8.904;2022-12-07T02:08:23;101324.94;;;1.66;100.00
11856;BME280;5987;53.140;8.904;2022-12-07T02:11:27;101321.50;;;1.69;100.00
11856;BME280;5987;53.140;8.904;2022-12-07T02:14:31;101324.03;;;1.66;100.00
11856;BME280;5987;53.140;8.904;2022-12-07T02:17:46;101314.59;;;1.68;100.00
11856;BME280;5987;53.140;8.904;2022-12-07T02:21:02;101321.50;;;1.69;100.00
11856;BME280;5987;53.140;8.904;2022-12-07T02:24:33;101315.44;;;1.67;100.00
11856;BME280;5987;53.140;8.904;2022-12-07T02:27:46;101319.75;;;1.68;100.00
11856;BME280;5987;53.140;8.904;2022-12-07T02:30:54;101318.84;;;1.61;100.00
11856;BME280;5987;53.140;8.904;2022-12-07T02:34:09;101325.66;;;1.51;100.00
11856;BME280;5987;53.140;8.904;2022-12-07T02:37:29;101316.13;;;1.46;100.00
11856;BME280;5987;53.140;8.904;2022-12-07T02:40:41;101315.19;;;1.36;100.00
11856;BME280;5987;53.140;8.904;2022-12-07T02:43:53;101312.59;;;1.36;100.00
11856;BME280;5987;53.140;8.904;2022-12-07T02:47:05;101314.31;;;1.37;100.00
11856;BME280;5987;53.140;8.904;2022-12-07T02:50:11;101312.59;;;1.36;100.00
11856;BME280;5987;53.140;8.904;2022-12-07T02:53:33;101313.41;;;1.33;100.00
11856;BME280;5987;53.140;8.904;2022-12-07T02:56:45;101323.81;;;1.36;100.00
11856;BME280;5987;53.140;8.904;2022-12-07T03:00:04;101330.72;;;1.41;100.00
11856;BME280;5987;53.140;8.904;2022-12-07T03:03:12;101328.19;;;1.42;100.00
11856;BME280;5987;53.140;8.904;2022-12-07T03:06:22;101323.03;;;1.48;100.00
11856;BME280;5987;53.140;8.904;2022-12-07T03:09:37;101327.38;;;1.49;100.00
11856;BME280;5987;53.140;8.904;2022-12-07T03:13:00;101331.69;;;1.50;100.00
11856;BME280;5987;53.140;8.904;2022-12-07T03:16:14;101324.78;;;1.49;100.00
11856;BME280;5987;53.140;8.904;2022-12-07T03:19:23;101321.31;;;1.47;100.00
11856;BME280;5987;53.140;8.904;2022-12-07T03:22:31;101318.69;;;1.44;100.00
11856;BME280;5987;53.140;8.904;2022-12-07T03:25:40;101310.03;;;1.41;100.00
11856;BME280;5987;53.140;8.904;2022-12-07T03:28:52;101304.00;;;1.40;100.00
11856;BME280;5987;53.140;8.904;2022-12-07T03:32:03;101314.41;;;1.46;100.00
11856;BME280;5987;53.140;8.904;2022-12-07T03:35:14;101308.38;;;1.47;100.00
11856;BME280;5987;53.140;8.904;2022-12-07T03:38:25;101310.09;;;1.45;100.00
11856;BME280;5987;53.140;8.904;2022-12-07T03:41:35;101307.53;;;1.48;100.00
11856;BME280;5987;53.140;8.904;2022-12-07T03:44:47;101306.66;;;1.46;100.00
11856;BME280;5987;53.140;8.904;2022-12-07T03:48:02;101310.09;;;1.47;100.00
11856;BME280;5987;53.140;8.904;2022-12-07T03:51:19;101310.09;;;1.48;100.00
11856;BME280;5987;53.140;8.904;2022-12-07T03:54:31;101301.53;;;1.56;100.00
11856;BME280;5987;53.140;8.904;2022-12-07T03:57:39;101310.16;;;1.56;100.00
11856;BME280;5987;53.140;8.904;2022-12-07T04:00:45;101305.88;;;1.60;100.00
11856;BME280;5987;53.140;8.904;2022-12-07T04:03:49;101304.22;;;1.65;100.00
11856;BME280;5987;53.140;8.904;2022-12-07T04:06:54;101307.66;;;1.67;100.00
11856;BME280;5987;53.140;8.904;2022-12-07T04:09:58;101305.97;;;1.69;100.00
11856;BME280;5987;53.140;8.904;2022-12-07T04:13:02;101307.66;;;1.64;100.00
11856;BME280;5987;53.140;8.904;2022-12-07T04:16:06;101294.69;;;1.64;100.00
11856;BME280;5987;53.140;8.904;2022-12-07T04:19:10;101296.38;;;1.60;100.00
11856;BME280;5987;53.140;8.904;2022-12-07T04:22:15;101297.25;;;1.58;100.00
11856;BME280;5987;53.140;8.904;2022-12-07T04:25:19;101302.44;;;1.58;100.00
11856;BME280;5987;53.140;8.904;2022-12-07T04:28:23;101311.88;;;1.54;100.00
11856;BME280;5987;53.140;8.904;2022-12-07T04:31:26;101309.31;;;1.56;100.00
11856;BME280;5987;53.140;8.904;2022-12-07T04:34:30;101302.44;;;1.58;100.00
11856;BME280;5987;53.140;8.904;2022-12-07T04:37:35;101309.31;;;1.60;100.00
11856;BME280;5987;53.140;8.904;2022-12-07T04:40:41;101299.88;;;1.61;100.00
11856;BME280;5987;53.140;8.904;2022-12-07T04:43:45;101297.28;;;1.64;100.00
11856;BME280;5987;53.140;8.904;2022-12-07T04:46:49;101308.47;;;1.60;100.00
11856;BME280;5987;53.140;8.904;2022-12-07T04:49:53;101301.63;;;1.63;100.00
11856;BME280;5987;53.140;8.904;2022-12-07T04:52:58;101295.56;;;1.63;100.00
11856;BME280;5987;53.140;8.904;2022-12-07T04:56:02;101299.88;;;1.62;100.00
11856;BME280;5987;53.140;8.904;2022-12-07T04:59:06;101304.22;;;1.65;100.00
11856;BME280;5987;53.140;8.904;2022-12-07T05:02:10;101295.63;;;1.70;100.00
11856;BME280;5987;53.140;8.904;2022-12-07T05:05:15;101284.34;;;1.65;100.00
11856;BME280;5987;53.140;8.904;2022-12-07T05:08:20;101292.13;;;1.67;100.00
11856;BME280;5987;53.140;8.904;2022-12-07T05:11:24;101287.84;;;1.67;100.00
11856;BME280;5987;53.140;8.904;2022-12-07T05:14:42;101294.78;;;1.73;100.00
11856;BME280;5987;53.140;8.904;2022-12-07T05:17:46;101293.81;;;1.60;100.00
11856;BME280;5987;53.140;8.904;2022-12-07T05:20:50;101300.69;;;1.55;100.00
11856;BME280;5987;53.140;8.904;2022-12-07T05:23:55;101304.94;;;1.48;100.00
11856;BME280;5987;53.140;8.904;2022-12-07T05:26:59;101307.47;;;1.42;100.00
11856;BME280;5987;53.140;8.904;2022-12-07T05:30:04;101297.97;;;1.38;100.00
11856;BME280;5987;53.140;8.904;2022-12-07T05:33:08;101298.78;;;1.34;100.00
11856;BME280;5987;53.140;8.904;2022-12-07T05:36:12;101303.97;;;1.34;100.00
11856;BME280;5987;53.140;8.904;2022-12-07T05:39:17;101306.56;;;1.35;100.00
11856;BME280;5987;53.140;8.904;2022-12-07T05:42:20;101291.88;;;1.33;100.00
11856;BME280;5987;53.140;8.904;2022-12-07T05:45:24;101294.47;;;1.36;100.00
11856;BME280;5987;53.140;8.904;2022-12-07T05:48:28;101284.94;;;1.32;100.00
11856;BME280;5987;53.140;8.904;2022-12-07T05:51:32;101291.84;;;1.30;100.00
11856;BME280;5987;53.140;8.904;2022-12-07T05:54:53;101297.84;;;1.24;100.00
11856;BME280;5987;53.140;8.904;2022-12-07T05:58:11;101300.44;;;1.26;100.00
11856;BME280;5987;53.140;8.904;2022-12-07T06:01:32;101308.22;;;1.29;100.00
11856;BME280;5987;53.140;8.904;2022-12-07T06:04:39;101303.97;;;1.37;100.00
11856;BME280;5987;53.140;8.904;2022-12-07T06:07:43;101307.41;;;1.34;100.00
11856;BME280;5987;53.140;8.904;2022-12-07T06:10:48;101311.72;;;1.34;100.00
11856;BME280;5987;53.140;8.904;2022-12-07T06:14:14;101311.72;;;1.35;100.00
11856;BME280;5987;53.140;8.904;2022-12-07T06:17:17;101317.84;;;1.42;100.00
11856;BME280;5987;53.140;8.904;2022-12-07T06:20:20;101317.75;;;1.36;100.00
11856;BME280;5987;53.140;8.904;2022-12-07T06:23:24;101309.13;;;1.32;100.00
11856;BME280;5987;53.140;8.904;2022-12-07T06:26:29;101296.19;;;1.32;100.00
11856;BME280;5987;53.140;8.904;2022-12-07T06:29:33;101303.06;;;1.33;100.00
11856;BME280;5987;53.140;8.904;2022-12-07T06:32:37;101310.81;;;1.32;100.00
11856;BME280;5987;53.140;8.904;2022-12-07T06:35:41;101303.13;;;1.36;100.00
11856;BME280;5987;53.140;8.904;2022-12-07T06:38:45;101300.63;;;1.50;100.00
11856;BME280;5987;53.140;8.904;2022-12-07T06:41:51;101307.41;;;1.36;100.00
11856;BME280;5987;53.140;8.904;2022-12-07T06:44:56;101303.06;;;1.30;100.00
11856;BME280;5987;53.140;8.904;2022-12-07T06:48:00;101303.03;;;1.27;100.00
11856;BME280;5987;53.140;8.904;2022-12-07T06:51:04;101297.84;;;1.24;100.00
11856;BME280;5987;53.140;8.904;2022-12-07T06:54:08;101304.66;;;1.17;100.00
11856;BME280;5987;53.140;8.904;2022-12-07T06:57:13;101303.81;;;1.18;100.00
11856;BME280;5987;53.140;8.904;2022-12-07T07:00:18;101300.34;;;1.16;100.00
11856;BME280;5987;53.140;8.904;2022-12-07T07:03:24;101307.19;;;1.11;100.00
11856;BME280;5987;53.140;8.904;2022-12-07T07:06:28;101310.63;;;1.09;100.00
11856;BME280;5987;53.140;8.904;2022-12-07T07:09:32;101315.81;;;1.10;100.00
11856;BME280;5987;53.140;8.904;2022-12-07T07:12:37;101317.56;;;1.14;100.00
11856;BME280;5987;53.140;8.904;2022-12-07T07:15:41;101313.25;;;1.15;100.00
11856;BME280;5987;53.140;8.904;2022-12-07T07:18:44;101315.00;;;1.17;100.00
11856;BME280;5987;53.140;8.904;2022-12-07T07:21:48;101306.41;;;1.17;100.00
11856;BME280;5987;53.140;8.904;2022-12-07T07:24:52;101303.81;;;1.18;100.00
11856;BME280;5987;53.140;8.904;2022-12-07T07:27:57;101305.50;;;1.16;100.00
11856;BME280;5987;53.140;8.904;2022-12-07T07:31:01;101306.34;;;1.14;100.00
11856;BME280;5987;53.140;8.904;2022-12-07T07:34:05;101315.88;;;1.19;100.00
11856;BME280;5987;53.140;8.904;2022-12-07T07:37:10;101315.03;;;1.19;100.00
11856;BME280;5987;53.140;8.904;2022-12-07T07:40:23;101304.63;;;1.13;100.00
11856;BME280;5987;53.140;8.904;2022-12-07T07:43:28;101309.81;;;1.13;100.00
11856;BME280;5987;53.140;8.904;2022-12-07T07:46:31;101319.28;;;1.14;100.00
11856;BME280;5987;53.140;8.904;2022-12-07T07:49:35;101308.91;;;1.12;100.00
11856;BME280;5987;53.140;8.904;2022-12-07T07:52:46;101311.47;;;1.09;100.00
11856;BME280;5987;53.140;8.904;2022-12-07T07:55:53;101324.44;;;1.12;100.00
11856;BME280;5987;53.140;8.904;2022-12-07T07:58:58;101322.72;;;1.11;100.00
11856;BME280;5987;53.140;8.904;2022-12-07T08:02:02;101317.53;;;1.10;100.00
11856;BME280;5987;53.140;8.904;2022-12-07T08:05:07;101322.75;;;1.17;100.00
11856;BME280;5987;53.140;8.904;2022-12-07T08:08:11;101326.16;;;1.13;100.00
11856;BME280;5987;53.140;8.904;2022-12-07T08:11:15;101322.75;;;1.16;100.00
11856;BME280;5987;53.140;8.904;2022-12-07T08:14:21;101322.72;;;1.13;100.00
11856;BME280;5987;53.140;8.904;2022-12-07T08:17:25;101314.16;;;1.18;100.00
11856;BME280;5987;53.140;8.904;2022-12-07T08:20:31;101318.50;;;1.21;100.00
11856;BME280;5987;53.140;8.904;2022-12-07T08:23:35;101326.31;;;1.26;100.00
11856;BME280;5987;53.140;8.904;2022-12-07T08:26:41;101320.28;;;1.28;100.00
11856;BME280;5987;53.140;8.904;2022-12-07T08:29:46;101322.03;;;1.31;100.00
11856;BME280;5987;53.140;8.904;2022-12-07T08:32:50;101345.34;;;1.34;100.00
11856;BME280;5987;53.140;8.904;2022-12-07T08:35:54;101338.47;;;1.36;100.00
11856;BME280;5987;53.140;8.904;2022-12-07T08:38:58;101334.16;;;1.36;100.00
11856;BME280;5987;53.140;8.904;2022-12-07T08:42:21;101332.44;;;1.39;100.00
11856;BME280;5987;53.140;8.904;2022-12-07T08:45:31;101329.88;;;1.42;100.00
11856;BME280;5987;53.140;8.904;2022-12-07T08:48:44;101335.00;;;1.35;100.00
11856;BME280;5987;53.140;8.904;2022-12-07T08:51:50;101339.31;;;1.35;100.00
11856;BME280;5987;53.140;8.904;2022-12-07T08:54:54;101343.66;;;1.39;100.00
11856;BME280;5987;53.140;8.904;2022-12-07T08:57:58;101342.84;;;1.45;100.00
11856;BME280;5987;53.140;8.904;2022-12-07T09:01:04;101348.13;;;1.54;100.00
11856;BME280;5987;53.140;8.904;2022-12-07T09:04:09;101342.97;;;1.57;100.00
11856;BME280;5987;53.140;8.904;2022-12-07T09:07:13;101347.38;;;1.69;100.00
11856;BME280;5987;53.140;8.904;2022-12-07T09:10:18;101343.97;;;1.73;100.00
11856;BME280;5987;53.140;8.904;2022-12-07T09:13:22;101340.53;;;1.77;100.00
11856;BME280;5987;53.140;8.904;2022-12-07T09:16:27;101325.91;;;1.84;100.00
11856;BME280;5987;53.140;8.904;2022-12-07T09:19:30;101324.19;;;1.83;100.00
11856;BME280;5987;53.140;8.904;2022-12-07T09:22:34;101329.38;;;1.84;100.00
11856;BME280;5987;53.140;8.904;2022-12-07T09:25:38;101330.25;;;1.86;100.00
11856;BME280;5987;53.140;8.904;2022-12-07T09:28:41;101328.56;;;1.92;100.00
11856;BME280;5987;53.140;8.904;2022-12-07T09:31:46;101335.50;;;1.97;100.00
11856;BME280;5987;53.140;8.904;2022-12-07T09:34:50;101329.44;;;1.97;100.00
11856;BME280;5987;53.140;8.904;2022-12-07T09:37:54;101323.50;;;2.12;100.00
11856;BME280;5987;53.140;8.904;2022-12-07T09:41:04;101330.44;;;2.19;100.00
11856;BME280;5987;53.140;8.904;2022-12-07T09:44:12;101318.41;;;2.32;100.00
11856;BME280;5987;53.140;8.904;2022-12-07T09:47:19;101325.28;;;2.23;100.00
11856;BME280;5987;53.140;8.904;2022-12-07T09:50:26;101320.16;;;2.31;100.00
11856;BME280;5987;53.140;8.904;2022-12-07T09:53:36;101314.13;;;2.32;100.00
11856;BME280;5987;53.140;8.904;2022-12-07T09:56:40;101315.84;;;2.32;100.00
11856;BME280;5987;53.140;8.904;2022-12-07T09:59:44;101328.75;;;2.22;100.00
11856;BME280;5987;53.140;8.904;2022-12-07T10:02:54;101320.97;;;2.21;100.00
11856;BME280;5987;53.140;8.904;2022-12-07T10:05:59;101318.41;;;2.27;100.00
11856;BME280;5987;53.140;8.904;2022-12-07T10:09:09;101315.06;;;2.47;100.00
11856;BME280;5987;53.140;8.904;2022-12-07T10:12:13;101319.47;;;2.69;100.00
11856;BME280;5987;53.140;8.904;2022-12-07T10:15:23;101329.03;;;2.90;100.00
11856;BME280;5987;53.140;8.904;2022-12-07T10:18:31;101327.34;;;3.09;100.00
11856;BME280;5987;53.140;8.904;2022-12-07T10:21:35;101316.97;;;3.20;100.00
11856;BME280;5987;53.140;8.904;2022-12-07T10:24:41;101316.00;;;2.70;100.00
11856;BME280;5987;53.140;8.904;2022-12-07T10:27:59;101310.84;;;2.77;100.00
11856;BME280;5987;53.140;8.904;2022-12-07T10:31:17;101320.31;;;2.65;100.00
11856;BME280;5987;53.140;8.904;2022-12-07T10:34:27;101309.94;;;2.61;100.00
11856;BME280;5987;53.140;8.904;2022-12-07T10:37:40;101304.75;;;2.61;100.00
11856;BME280;5987;53.140;8.904;2022-12-07T10:40:44;101304.69;;;2.54;100.00
11856;BME280;5987;53.140;8.904;2022-12-07T10:43:51;101296.06;;;2.57;100.00
11856;BME280;5987;53.140;8.904;2022-12-07T10:47:18;101286.59;;;2.61;100.00
11856;BME280;5987;53.140;8.904;2022-12-07T10:51:05;101286.59;;;2.65;100.00
11856;BME280;5987;53.140;8.904;2022-12-07T10:54:22;101280.56;;;2.65;100.00
11856;BME280;5987;53.140;8.904;2022-12-07T10:57:45;101278.88;;;2.76;100.00
11856;BME280;5987;53.140;8.904;2022-12-07T11:01:00;101268.50;;;2.82;100.00
11856;BME280;5987;53.140;8.904;2022-12-07T11:04:21;101282.34;;;2.94;100.00
11856;BME280;5987;53.140;8.904;2022-12-07T11:07:44;101284.13;;;3.04;100.00
11856;BME280;5987;53.140;8.904;2022-12-07T11:11:06;101278.91;;;3.15;100.00
11856;BME280;5987;53.140;8.904;2022-12-07T11:14:24;101279.78;;;2.98;100.00
11856;BME280;5987;53.140;8.904;2022-12-07T11:17:43;101266.81;;;3.00;100.00
11856;BME280;5987;53.140;8.904;2022-12-07T11:20:54;101255.56;;;2.98;100.00
11856;BME280;5987;53.140;8.904;2022-12-07T11:24:10;101246.03;;;2.90;100.00
11856;BME280;5987;53.140;8.904;2022-12-07T11:27:30;101239.13;;;2.96;100.00
11856;BME280;5987;53.140;8.904;2022-12-07T11:30:49;101245.19;;;2.96;100.00
11856;BME280;5987;53.140;8.904;2022-12-07T11:34:07;101240.84;;;3.28;100.00
11856;BME280;5987;53.140;8.904;2022-12-07T11:37:16;101235.69;;;3.15;100.00
11856;BME280;5987;53.140;8.904;2022-12-07T11:40:28;101243.47;;;3.23;100.00
11856;BME280;5987;53.140;8.904;2022-12-07T11:43:37;101241.75;;;3.25;100.00
11856;BME280;5987;53.140;8.904;2022-12-07T11:46:48;101240.88;;;3.31;100.00
11856;BME280;5987;53.140;8.904;2022-12-07T11:50:01;101247.78;;;3.32;100.00
11856;BME280;5987;53.140;8.904;2022-12-07T11:53:16;101249.53;;;3.26;100.00
11856;BME280;5987;53.140;8.904;2022-12-07T11:56:26;101259.03;;;3.17;100.00
11856;BME280;5987;53.140;8.904;2022-12-07T11:59:39;101256.41;;;2.90;100.00
11856;BME280;5987;53.140;8.904;2022-12-07T12:02:51;101262.38;;;2.58;100.00
11856;BME280;5987;53.140;8.904;2022-12-07T12:05:57;101256.34;;;2.53;100.00
11856;BME280;5987;53.140;8.904;2022-12-07T12:09:09;101245.94;;;2.47;100.00
11856;BME280;5987;53.140;8.904;2022-12-07T12:17:01;101243.38;;;2.60;100.00
11856;BME280;5987;53.140;8.904;2022-12-07T12:20:21;101239.03;;;2.60;100.00
11856;BME280;5987;53.140;8.904;2022-12-07T12:23:38;101240.78;;;2.60;100.00
11856;BME280;5987;53.140;8.904;2022-12-07T12:26:50;101240.78;;;2.60;100.00
11856;BME280;5987;53.140;8.904;2022-12-07T12:30:02;101237.34;;;2.67;100.00
11856;BME280;5987;53.140;8.904;2022-12-07T12:33:25;101234.75;;;2.56;100.00
11856;BME280;5987;53.140;8.904;2022-12-07T12:36:46;101240.78;;;2.53;100.00
11856;BME280;5987;53.140;8.904;2022-12-07T12:43:54;101246.66;;;2.11;100.00
11856;BME280;5987;53.140;8.904;2022-12-07T12:47:00;101238.66;;;1.69;100.00
11856;BME280;5987;53.140;8.904;2022-12-07T12:50:18;101227.28;;;1.42;100.00
11856;BME280;5987;53.140;8.904;2022-12-07T12:53:24;101207.47;;;1.50;100.00
11856;BME280;5987;53.140;8.904;2022-12-07T12:56:41;101198.09;;;1.65;100.00
11856;BME280;5987;53.140;8.904;2022-12-07T12:59:58;101207.63;;;1.70;100.00
11856;BME280;5987;53.140;8.904;2022-12-07T13:03:04;101211.97;;;1.76;100.00
11856;BME280;5987;53.140;8.904;2022-12-07T13:06:19;101208.47;;;1.73;100.00
11856;BME280;5987;53.140;8.904;2022-12-07T13:09:35;101214.50;;;1.70;100.00
11856;BME280;5987;53.140;8.904;2022-12-07T13:12:40;101205.88;;;1.74;100.00
11856;BME280;5987;53.140;8.904;2022-12-07T13:15:46;101203.31;;;1.76;100.00
11856;BME280;5987;53.140;8.904;2022-12-07T13:18:55;101193.84;;;1.79;100.00
11856;BME280;5987;53.140;8.904;2022-12-07T13:21:59;101189.53;;;1.81;100.00
11856;BME280;5987;53.140;8.904;2022-12-07T13:25:09;101192.16;;;1.87;100.00
11856;BME280;5987;53.140;8.904;2022-12-07T13:28:17;101184.41;;;1.86;100.00
11856;BME280;5987;53.140;8.904;2022-12-07T13:31:41;101186.97;;;1.83;100.00
11856;BME280;5987;53.140;8.904;2022-12-07T13:34:47;101193.00;;;1.85;100.00
11856;BME280;5987;53.140;8.904;2022-12-07T13:37:51;101182.66;;;1.86;100.00
11856;BME280;5987;53.140;8.904;2022-12-07T13:41:03;101193.91;;;1.88;100.00
11856;BME280;5987;53.140;8.904;2022-12-07T13:44:11;101185.25;;;1.93;100.00
11856;BME280;5987;53.140;8.904;2022-12-07T13:47:23;101185.31;;;1.96;100.00
11856;BME280;5987;53.140;8.904;2022-12-07T13:50:33;101198.25;;;1.96;100.00
11856;BME280;5987;53.140;8.904;2022-12-07T13:53:47;101195.69;;;2.02;100.00
11856;BME280;5987;53.140;8.904;2022-12-07T13:56:52;101196.56;;;2.04;100.00
11856;BME280;5987;53.140;8.904;2022-12-07T13:59:57;101193.09;;;2.08;100.00
11856;BME280;5987;53.140;8.904;2022-12-07T14:03:04;101198.31;;;2.13;100.00
11856;BME280;5987;53.140;8.904;2022-12-07T14:06:27;101194.84;;;2.14;100.00
11856;BME280;5987;53.140;8.904;2022-12-07T14:09:31;101207.00;;;2.19;100.00
11856;BME280;5987;53.140;8.904;2022-12-07T14:12:36;101209.53;;;2.10;100.00
11856;BME280;5987;53.140;8.904;2022-12-07T14:15:40;101207.78;;;2.09;100.00
11856;BME280;5987;53.140;8.904;2022-12-07T14:18:44;101205.19;;;2.08;100.00
11856;BME280;5987;53.140;8.904;2022-12-07T14:22:07;101186.16;;;2.02;100.00
11856;BME280;5987;53.140;8.904;2022-12-07T14:25:21;101190.50;;;2.02;100.00
11856;BME280;5987;53.140;8.904;2022-12-07T14:28:28;101189.59;;;1.95;100.00
11856;BME280;5987;53.140;8.904;2022-12-07T14:31:32;101192.16;;;1.87;100.00
11856;BME280;5987;53.140;8.904;2022-12-07T14:34:36;101190.41;;;1.80;100.00
11856;BME280;5987;53.140;8.904;2022-12-07T14:37:45;101180.84;;;1.67;100.00
11856;BME280;5987;53.140;8.904;2022-12-07T14:40:49;101169.56;;;1.56;100.00
11856;BME280;5987;53.140;8.904;2022-12-07T14:43:54;101171.22;;;1.43;100.00
11856;BME280;5987;53.140;8.904;2022-12-07T14:47:17;101176.31;;;1.32;100.00
11856;BME280;5987;53.140;8.904;2022-12-07T14:50:47;101180.59;;;1.27;100.00
11856;BME280;5987;53.140;8.904;2022-12-07T14:54:17;101176.22;;;1.19;100.00
11856;BME280;5987;53.140;8.904;2022-12-07T14:57:23;101179.59;;;1.09;100.00
11856;BME280;5987;53.140;8.904;2022-12-07T15:00:28;101175.22;;;1.00;100.00
11856;BME280;5987;53.140;8.904;2022-12-07T15:03:32;101180.38;;;1.00;100.00
11856;BME280;5987;53.140;8.904;2022-12-07T15:06:37;101171.75;;;0.98;100.00
11856;BME280;5987;53.140;8.904;2022-12-07T15:09:42;101175.16;;;0.93;100.00
11856;BME280;5987;53.140;8.904;2022-12-07T15:12:46;101175.94;;;0.82;100.00
11856;BME280;5987;53.140;8.904;2022-12-07T15:15:52;101179.31;;;0.75;100.00
11856;BME280;5987;53.140;8.904;2022-12-07T15:18:57;101179.19;;;0.63;100.00
11856;BME280;5987;53.140;8.904;2022-12-07T15:22:20;101181.75;;;0.58;100.00
11856;BME280;5987;53.140;8.904;2022-12-07T15:25:25;101179.97;;;0.54;100.00
11856;BME280;5987;53.140;8.904;2022-12-07T15:28:29;101182.53;;;0.49;100.00
11856;BME280;5987;53.140;8.904;2022-12-07T15:31:33;101177.28;;;0.46;100.00
11856;BME280;5987;53.140;8.904;2022-12-07T15:34:57;101175.59;;;0.45;100.00
11856;BME280;5987;53.140;8.904;2022-12-07T15:38:02;101176.44;;;0.44;100.00
11856;BME280;5987;53.140;8.904;2022-12-07T15:41:07;101181.56;;;0.41;100.00
11856;BME280;5987;53.140;8.904;2022-12-07T15:44:12;101185.81;;;0.36;100.00
11856;BME280;5987;53.140;8.904;2022-12-07T15:47:35;101187.44;;;0.28;100.00
11856;BME280;5987;53.140;8.904;2022-12-07T15:51:03;101178.84;;;0.29;100.00
11856;BME280;5987;53.140;8.904;2022-12-07T15:54:16;101176.22;;;0.24;100.00
11856;BME280;5987;53.140;8.904;2022-12-07T15:57:22;101178.81;;;0.26;100.00
11856;BME280;5987;53.140;8.904;2022-12-07T16:00:26;101171.94;;;0.29;100.00
11856;BME280;5987;53.140;8.904;2022-12-07T16:03:30;101172.94;;;0.41;100.00
11856;BME280;5987;53.140;8.904;2022-12-07T16:06:34;101174.69;;;0.45;100.00
11856;BME280;5987;53.140;8.904;2022-12-07T16:09:38;101178.19;;;0.48;100.00
11856;BME280;5987;53.140;8.904;2022-12-07T16:12:43;101180.81;;;0.51;100.00
11856;BME280;5987;53.140;8.904;2022-12-07T16:15:47;101179.97;;;0.54;100.00
11856;BME280;5987;53.140;8.904;2022-12-07T16:18:52;101176.56;;;0.58;100.00
11856;BME280;5987;53.140;8.904;2022-12-07T16:21:56;101173.94;;;0.54;100.00
11856;BME280;5987;53.140;8.904;2022-12-07T16:25:00;101168.81;;;0.60;100.00
11856;BME280;5987;53.140;8.904;2022-12-07T16:28:06;101168.84;;;0.63;100.00
11856;BME280;5987;53.140;8.904;2022-12-07T16:31:13;101170.59;;;0.65;100.00
11856;BME280;5987;53.140;8.904;2022-12-07T16:34:18;101175.78;;;0.68;100.00
11856;BME280;5987;53.140;8.904;2022-12-07T16:37:22;101192.19;;;0.69;100.00
11856;BME280;5987;53.140;8.904;2022-12-07T16:40:26;101183.53;;;0.67;100.00
11856;BME280;5987;53.140;8.904;2022-12-07T16:43:31;101178.41;;;0.72;100.00
11856;BME280;5987;53.140;8.904;2022-12-07T16:46:35;101178.44;;;0.73;100.00